sensor_id;sensor_type;location;lat;lon;timestamp;pressure;altitude;pressure_sealevel;temperature
27826;BMP280;15077;49.704;9.908;2023-01-29T00:00:16;99310.59;;;5.47
27826;BMP280;15077;49.704;9.908;2023-01-29T00:02:42;99321.50;;;5.45
27826;BMP280;15077;49.704;9.908;2023-01-29T00:05:08;99331.56;;;5.42
27826;BMP280;15077;49.704;9.908;2023-01-29T00:07:34;99328.22;;;5.40
27826;BMP280;15077;49.704;9.908;2023-01-29T00:09:59;99332.41;;;5.39
27826;BMP280;15077;49.704;9.908;2023-01-29T00:12:25;99336.59;;;5.37
27826;BMP280;15077;49.704;9.908;2023-01-29T00:14:51;99329.91;;;5.38
27826;BMP280;15077;49.704;9.908;2023-01-29T00:17:16;99336.59;;;5.39
27826;BMP280;15077;49.704;9.908;2023-01-29T00:19:42;99341.63;;;5.39
27826;BMP280;15077;49.704;9.908;2023-01-29T00:22:08;99332.41;;;5.36
27826;BMP280;15077;49.704;9.908;2023-01-29T00:24:33;99333.25;;;5.37
27826;BMP280;15077;49.704;9.908;2023-01-29T00:26:59;99331.56;;;5.34
27826;BMP280;15077;49.704;9.908;2023-01-29T00:29:25;99338.28;;;5.34
27826;BMP280;15077;49.704;9.908;2023-01-29T00:31:50;99329.03;;;5.34
27826;BMP280;15077;49.704;9.908;2023-01-29T00:34:16;99331.56;;;5.36
27826;BMP280;15077;49.704;9.908;2023-01-29T00:36:42;99324.03;;;5.36
27826;BMP280;15077;49.704;9.908;2023-01-29T00:39:10;99315.66;;;5.37
27826;BMP280;15077;49.704;9.908;2023-01-29T00:41:36;99311.44;;;5.36
27826;BMP280;15077;49.704;9.908;2023-01-29T00:44:21;99316.47;;;5.36
27826;BMP280;15077;49.704;9.908;2023-01-29T00:47:06;99310.63;;;5.34
27826;BMP280;15077;49.704;9.908;2023-01-29T00:49:50;99315.66;;;5.34
27826;BMP280;15077;49.704;9.908;2023-01-29T00:52:15;99309.78;;;5.35
27826;BMP280;15077;49.704;9.908;2023-01-29T00:54:56;99313.97;;;5.36
27826;BMP280;15077;49.704;9.908;2023-01-29T00:57:25;99310.63;;;5.35
27826;BMP280;15077;49.704;9.908;2023-01-29T00:59:52;99308.09;;;5.37
27826;BMP280;15077;49.704;9.908;2023-01-29T01:02:21;99298.88;;;5.36
27826;BMP280;15077;49.704;9.908;2023-01-29T01:05:09;99301.41;;;5.36
27826;BMP280;15077;49.704;9.908;2023-01-29T01:07:39;99309.78;;;5.35
27826;BMP280;15077;49.704;9.908;2023-01-29T01:10:08;99307.28;;;5.33
27826;BMP280;15077;49.704;9.908;2023-01-29T01:12:53;99309.78;;;5.32
27826;BMP280;15077;49.704;9.908;2023-01-29T01:15:22;99306.44;;;5.30
27826;BMP280;15077;49.704;9.908;2023-01-29T01:17:54;99298.88;;;5.28
27826;BMP280;15077;49.704;9.908;2023-01-29T01:20:21;99302.25;;;5.26
27826;BMP280;15077;49.704;9.908;2023-01-29T01:22:47;99298.91;;;5.26
27826;BMP280;15077;49.704;9.908;2023-01-29T01:25:15;99302.25;;;5.26
27826;BMP280;15077;49.704;9.908;2023-01-29T01:27:43;99308.94;;;5.26
27826;BMP280;15077;49.704;9.908;2023-01-29T01:30:15;99310.63;;;5.27
27826;BMP280;15077;49.704;9.908;2023-01-29T01:32:41;99308.94;;;5.26
27826;BMP280;15077;49.704;9.908;2023-01-29T01:35:09;99298.88;;;5.27
27826;BMP280;15077;49.704;9.908;2023-01-29T01:37:38;99308.94;;;5.28
27826;BMP280;15077;49.704;9.908;2023-01-29T01:40:08;99308.13;;;5.28
27826;BMP280;15077;49.704;9.908;2023-01-29T01:42:40;99293.88;;;5.27
27826;BMP280;15077;49.704;9.908;2023-01-29T01:45:18;99303.09;;;5.25
27826;BMP280;15077;49.704;9.908;2023-01-29T01:48:06;99306.44;;;5.21
27826;BMP280;15077;49.704;9.908;2023-01-29T01:50:42;99304.78;;;5.11
27826;BMP280;15077;49.704;9.908;2023-01-29T01:53:11;99298.06;;;5.04
27826;BMP280;15077;49.704;9.908;2023-01-29T01:55:44;99296.38;;;5.09
27826;BMP280;15077;49.704;9.908;2023-01-29T01:58:23;99303.09;;;5.10
27826;BMP280;15077;49.704;9.908;2023-01-29T02:00:49;99304.78;;;5.11
27826;BMP280;15077;49.704;9.908;2023-01-29T02:03:18;99294.75;;;5.10
27826;BMP280;15077;49.704;9.908;2023-01-29T02:06:03;99288.84;;;5.06
27826;BMP280;15077;49.704;9.908;2023-01-29T02:09:19;99296.41;;;5.03
27826;BMP280;15077;49.704;9.908;2023-01-29T02:12:06;99296.41;;;5.06
27826;BMP280;15077;49.704;9.908;2023-01-29T02:14:36;99303.09;;;5.07
27826;BMP280;15077;49.704;9.908;2023-01-29T02:17:07;99299.75;;;5.08
27826;BMP280;15077;49.704;9.908;2023-01-29T02:20:03;99300.59;;;5.09
27826;BMP280;15077;49.704;9.908;2023-01-29T02:26:03;99289.72;;;5.08
27826;BMP280;15077;49.704;9.908;2023-01-29T02:31:23;99286.34;;;5.12
27826;BMP280;15077;49.704;9.908;2023-01-29T02:36:49;99277.13;;;5.16
27826;BMP280;15077;49.704;9.908;2023-01-29T02:42:14;99278.78;;;5.15
27826;BMP280;15077;49.704;9.908;2023-01-29T02:44:58;99274.63;;;5.16
27826;BMP280;15077;49.704;9.908;2023-01-29T02:50:19;99270.44;;;5.12
27826;BMP280;15077;49.704;9.908;2023-01-29T02:53:13;99270.44;;;5.07
27826;BMP280;15077;49.704;9.908;2023-01-29T02:55:53;99264.59;;;5.07
27826;BMP280;15077;49.704;9.908;2023-01-29T02:58:30;99263.72;;;5.06
27826;BMP280;15077;49.704;9.908;2023-01-29T03:01:08;99266.25;;;5.05
27826;BMP280;15077;49.704;9.908;2023-01-29T03:03:42;99260.38;;;5.01
27826;BMP280;15077;49.704;9.908;2023-01-29T03:06:34;99267.94;;;5.01
27826;BMP280;15077;49.704;9.908;2023-01-29T03:09:32;99267.06;;;4.96
27826;BMP280;15077;49.704;9.908;2023-01-29T03:12:11;99270.44;;;4.94
27826;BMP280;15077;49.704;9.908;2023-01-29T03:14:56;99271.28;;;4.88
27826;BMP280;15077;49.704;9.908;2023-01-29T03:18:19;99277.97;;;4.83
27826;BMP280;15077;49.704;9.908;2023-01-29T03:20:53;99277.97;;;4.81
27826;BMP280;15077;49.704;9.908;2023-01-29T03:23:34;99282.16;;;4.80
27826;BMP280;15077;49.704;9.908;2023-01-29T03:26:21;99289.66;;;4.76
27826;BMP280;15077;49.704;9.908;2023-01-29T03:29:08;99291.34;;;4.74
27826;BMP280;15077;49.704;9.908;2023-01-29T03:31:55;99296.38;;;4.68
27826;BMP280;15077;49.704;9.908;2023-01-29T03:34:40;99296.38;;;4.62
27826;BMP280;15077;49.704;9.908;2023-01-29T03:37:23;99311.44;;;4.62
27826;BMP280;15077;49.704;9.908;2023-01-29T03:39:50;99308.09;;;4.63
27826;BMP280;15077;49.704;9.908;2023-01-29T03:45:14;99308.09;;;4.64
27826;BMP280;15077;49.704;9.908;2023-01-29T03:48:41;99309.75;;;4.64
27826;BMP280;15077;49.704;9.908;2023-01-29T03:50:56;99311.44;;;4.66
27826;BMP280;15077;49.704;9.908;2023-01-29T03:53:58;99314.78;;;4.64
27826;BMP280;15077;49.704;9.908;2023-01-29T03:59:40;99314.78;;;4.67
27826;BMP280;15077;49.704;9.908;2023-01-29T04:02:28;99324.00;;;4.69
27826;BMP280;15077;49.704;9.908;2023-01-29T04:05:05;99318.16;;;4.73
27826;BMP280;15077;49.704;9.908;2023-01-29T04:07:35;99332.38;;;4.76
27826;BMP280;15077;49.704;9.908;2023-01-29T04:10:18;99329.03;;;4.75
27826;BMP280;15077;49.704;9.908;2023-01-29T04:12:55;99326.53;;;4.77
27826;BMP280;15077;49.704;9.908;2023-01-29T04:15:27;99327.34;;;4.77
27826;BMP280;15077;49.704;9.908;2023-01-29T04:17:56;99326.53;;;4.78
27826;BMP280;15077;49.704;9.908;2023-01-29T04:20:22;99329.03;;;4.81
27826;BMP280;15077;49.704;9.908;2023-01-29T04:22:51;99324.84;;;4.81
27826;BMP280;15077;49.704;9.908;2023-01-29T04:25:26;99319.00;;;4.81
27826;BMP280;15077;49.704;9.908;2023-01-29T04:28:12;99313.97;;;4.80
27826;BMP280;15077;49.704;9.908;2023-01-29T04:36:39;99308.13;;;4.75
27826;BMP280;15077;49.704;9.908;2023-01-29T04:50:24;99294.69;;;4.79
27826;BMP280;15077;49.704;9.908;2023-01-29T04:55:50;99280.50;;;4.79
27826;BMP280;15077;49.704;9.908;2023-01-29T04:58:27;99287.16;;;4.79
27826;BMP280;15077;49.704;9.908;2023-01-29T05:01:00;99284.66;;;4.79
27826;BMP280;15077;49.704;9.908;2023-01-29T05:03:28;99275.47;;;4.78
27826;BMP280;15077;49.704;9.908;2023-01-29T05:05:59;99276.28;;;4.77
27826;BMP280;15077;49.704;9.908;2023-01-29T05:08:28;99268.75;;;4.75
27826;BMP280;15077;49.704;9.908;2023-01-29T05:10:58;99252.00;;;4.76
27826;BMP280;15077;49.704;9.908;2023-01-29T05:13:27;99244.47;;;4.73
27826;BMP280;15077;49.704;9.908;2023-01-29T05:16:21;99243.63;;;4.65
27826;BMP280;15077;49.704;9.908;2023-01-29T05:18:48;99245.28;;;4.60
27826;BMP280;15077;49.704;9.908;2023-01-29T05:21:14;99255.31;;;4.55
27826;BMP280;15077;49.704;9.908;2023-01-29T05:23:40;99251.16;;;4.53
27826;BMP280;15077;49.704;9.908;2023-01-29T05:26:19;99245.28;;;4.52
27826;BMP280;15077;49.704;9.908;2023-01-29T05:29:04;99260.34;;;4.51
27826;BMP280;15077;49.704;9.908;2023-01-29T05:31:30;99248.66;;;4.51
27826;BMP280;15077;49.704;9.908;2023-01-29T05:33:55;99249.47;;;4.52
27826;BMP280;15077;49.704;9.908;2023-01-29T05:36:21;99256.19;;;4.53
27826;BMP280;15077;49.704;9.908;2023-01-29T05:38:47;99245.28;;;4.54
27826;BMP280;15077;49.704;9.908;2023-01-29T05:41:12;99246.97;;;4.56
27826;BMP280;15077;49.704;9.908;2023-01-29T05:43:38;99257.00;;;4.56
27826;BMP280;15077;49.704;9.908;2023-01-29T05:46:04;99253.66;;;4.56
27826;BMP280;15077;49.704;9.908;2023-01-29T05:48:30;99247.78;;;4.52
27826;BMP280;15077;49.704;9.908;2023-01-29T05:51:01;99267.88;;;4.51
27826;BMP280;15077;49.704;9.908;2023-01-29T05:53:32;99263.69;;;4.47
27826;BMP280;15077;49.704;9.908;2023-01-29T05:56:01;99277.06;;;4.46
27826;BMP280;15077;49.704;9.908;2023-01-29T05:58:29;99276.25;;;4.44
27826;BMP280;15077;49.704;9.908;2023-01-29T06:00:55;99275.38;;;4.43
27826;BMP280;15077;49.704;9.908;2023-01-29T06:03:21;99278.75;;;4.44
27826;BMP280;15077;49.704;9.908;2023-01-29T06:05:46;99281.28;;;4.47
27826;BMP280;15077;49.704;9.908;2023-01-29T06:08:12;99278.78;;;4.47
27826;BMP280;15077;49.704;9.908;2023-01-29T06:10:38;99277.09;;;4.49
27826;BMP280;15077;49.704;9.908;2023-01-29T06:13:03;99282.94;;;4.51
27826;BMP280;15077;49.704;9.908;2023-01-29T06:15:29;99283.81;;;4.53
27826;BMP280;15077;49.704;9.908;2023-01-29T06:17:56;99289.66;;;4.55
27826;BMP280;15077;49.704;9.908;2023-01-29T06:20:22;99296.34;;;4.56
27826;BMP280;15077;49.704;9.908;2023-01-29T06:22:48;99299.69;;;4.55
27826;BMP280;15077;49.704;9.908;2023-01-29T06:25:13;99292.97;;;4.54
27826;BMP280;15077;49.704;9.908;2023-01-29T06:27:39;99293.84;;;4.54
27826;BMP280;15077;49.704;9.908;2023-01-29T06:30:06;99287.13;;;4.53
27826;BMP280;15077;49.704;9.908;2023-01-29T06:32:32;99299.69;;;4.52
27826;BMP280;15077;49.704;9.908;2023-01-29T06:34:58;99298.84;;;4.47
27826;BMP280;15077;49.704;9.908;2023-01-29T06:37:24;99303.00;;;4.45
27826;BMP280;15077;49.704;9.908;2023-01-29T06:39:49;99298.00;;;4.45
27826;BMP280;15077;49.704;9.908;2023-01-29T06:42:15;99293.81;;;4.44
27826;BMP280;15077;49.704;9.908;2023-01-29T06:44:41;99294.66;;;4.41
27826;BMP280;15077;49.704;9.908;2023-01-29T06:47:06;99295.47;;;4.40
27826;BMP280;15077;49.704;9.908;2023-01-29T06:49:32;99292.97;;;4.39
27826;BMP280;15077;49.704;9.908;2023-01-29T06:51:58;99285.41;;;4.36
27826;BMP280;15077;49.704;9.908;2023-01-29T06:54:23;99281.25;;;4.35
27826;BMP280;15077;49.704;9.908;2023-01-29T06:56:50;99280.41;;;4.34
27826;BMP280;15077;49.704;9.908;2023-01-29T06:59:16;99280.41;;;4.34
27826;BMP280;15077;49.704;9.908;2023-01-29T07:01:42;99280.41;;;4.34
27826;BMP280;15077;49.704;9.908;2023-01-29T07:04:09;99286.28;;;4.35
27826;BMP280;15077;49.704;9.908;2023-01-29T07:06:36;99277.06;;;4.35
27826;BMP280;15077;49.704;9.908;2023-01-29T07:09:03;99276.22;;;4.35
27826;BMP280;15077;49.704;9.908;2023-01-29T07:11:29;99281.25;;;4.36
27826;BMP280;15077;49.704;9.908;2023-01-29T07:13:54;99284.59;;;4.37
27826;BMP280;15077;49.704;9.908;2023-01-29T07:16:20;99279.56;;;4.37
27826;BMP280;15077;49.704;9.908;2023-01-29T07:18:46;99291.31;;;4.41
27826;BMP280;15077;49.704;9.908;2023-01-29T07:21:11;99294.63;;;4.40
27826;BMP280;15077;49.704;9.908;2023-01-29T07:23:37;99297.16;;;4.38
27826;BMP280;15077;49.704;9.908;2023-01-29T07:26:04;99297.97;;;4.36
27826;BMP280;15077;49.704;9.908;2023-01-29T07:28:31;99309.69;;;4.34
27826;BMP280;15077;49.704;9.908;2023-01-29T07:31:00;99303.84;;;4.31
27826;BMP280;15077;49.704;9.908;2023-01-29T07:33:25;99302.97;;;4.27
27826;BMP280;15077;49.704;9.908;2023-01-29T07:35:52;99297.94;;;4.24
27826;BMP280;15077;49.704;9.908;2023-01-29T07:38:18;99293.75;;;4.20
27826;BMP280;15077;49.704;9.908;2023-01-29T07:40:44;99291.25;;;4.17
27826;BMP280;15077;49.704;9.908;2023-01-29T07:43:10;99294.56;;;4.15
27826;BMP280;15077;49.704;9.908;2023-01-29T07:45:37;99294.56;;;4.12
27826;BMP280;15077;49.704;9.908;2023-01-29T07:48:06;99297.06;;;4.09
27826;BMP280;15077;49.704;9.908;2023-01-29T07:50:33;99294.53;;;4.07
27826;BMP280;15077;49.704;9.908;2023-01-29T07:53:00;99305.38;;;4.03
27826;BMP280;15077;49.704;9.908;2023-01-29T07:55:26;99297.84;;;3.97
27826;BMP280;15077;49.704;9.908;2023-01-29T07:58:01;99302.84;;;3.94
27826;BMP280;15077;49.704;9.908;2023-01-29T08:00:29;99305.34;;;3.91
27826;BMP280;15077;49.704;9.908;2023-01-29T08:03:09;99295.31;;;3.90
27826;BMP280;15077;49.704;9.908;2023-01-29T08:05:36;99294.47;;;3.89
27826;BMP280;15077;49.704;9.908;2023-01-29T08:08:02;99287.75;;;3.85
27826;BMP280;15077;49.704;9.908;2023-01-29T08:10:28;99296.13;;;3.87
27826;BMP280;15077;49.704;9.908;2023-01-29T08:12:59;99300.31;;;3.88
27826;BMP280;15077;49.704;9.908;2023-01-29T08:15:27;99307.84;;;3.88
27826;BMP280;15077;49.704;9.908;2023-01-29T08:17:53;99322.06;;;3.89
27826;BMP280;15077;49.704;9.908;2023-01-29T08:20:20;99325.41;;;3.93
27826;BMP280;15077;49.704;9.908;2023-01-29T08:22:46;99325.44;;;3.96
27826;BMP280;15077;49.704;9.908;2023-01-29T08:25:13;99329.63;;;4.00
27826;BMP280;15077;49.704;9.908;2023-01-29T08:27:39;99338.00;;;4.03
27826;BMP280;15077;49.704;9.908;2023-01-29T08:30:07;99336.31;;;4.05
27826;BMP280;15077;49.704;9.908;2023-01-29T08:32:33;99345.53;;;4.05
27826;BMP280;15077;49.704;9.908;2023-01-29T08:34:58;99337.19;;;4.04
27826;BMP280;15077;49.704;9.908;2023-01-29T08:37:24;99343.84;;;4.04
27826;BMP280;15077;49.704;9.908;2023-01-29T08:39:50;99339.69;;;4.04
27826;BMP280;15077;49.704;9.908;2023-01-29T08:42:15;99344.72;;;4.04
27826;BMP280;15077;49.704;9.908;2023-01-29T08:44:41;99349.72;;;4.04
27826;BMP280;15077;49.704;9.908;2023-01-29T08:47:07;99355.56;;;4.05
27826;BMP280;15077;49.704;9.908;2023-01-29T08:49:33;99351.38;;;4.05
27826;BMP280;15077;49.704;9.908;2023-01-29T08:51:58;99352.25;;;4.07
27826;BMP280;15077;49.704;9.908;2023-01-29T08:54:24;99353.09;;;4.09
27826;BMP280;15077;49.704;9.908;2023-01-29T08:56:50;99357.28;;;4.12
27826;BMP280;15077;49.704;9.908;2023-01-29T08:59:16;99349.78;;;4.13
27826;BMP280;15077;49.704;9.908;2023-01-29T09:01:41;99342.25;;;4.13
27826;BMP280;15077;49.704;9.908;2023-01-29T09:04:07;99323.81;;;4.11
27826;BMP280;15077;49.704;9.908;2023-01-29T09:06:33;99322.16;;;4.09
27826;BMP280;15077;49.704;9.908;2023-01-29T09:08:59;99317.94;;;4.06
27826;BMP280;15077;49.704;9.908;2023-01-29T09:11:25;99318.78;;;4.11
27826;BMP280;15077;49.704;9.908;2023-01-29T09:13:51;99308.75;;;4.11
27826;BMP280;15077;49.704;9.908;2023-01-29T09:16:16;99298.72;;;4.10
27826;BMP280;15077;49.704;9.908;2023-01-29T09:18:42;99308.75;;;4.08
27826;BMP280;15077;49.704;9.908;2023-01-29T09:21:08;99290.34;;;4.06
27826;BMP280;15077;49.704;9.908;2023-01-29T09:23:34;99293.69;;;4.04
27826;BMP280;15077;49.704;9.908;2023-01-29T09:26:00;99287.81;;;4.00
27826;BMP280;15077;49.704;9.908;2023-01-29T09:28:26;99294.53;;;4.00
27826;BMP280;15077;49.704;9.908;2023-01-29T09:30:51;99302.06;;;4.01
27826;BMP280;15077;49.704;9.908;2023-01-29T09:33:17;99293.69;;;4.04
27826;BMP280;15077;49.704;9.908;2023-01-29T09:35:44;99301.22;;;4.11
27826;BMP280;15077;49.704;9.908;2023-01-29T09:38:13;99298.78;;;4.16
27826;BMP280;15077;49.704;9.908;2023-01-29T09:47:05;99307.13;;;4.21
27826;BMP280;15077;49.704;9.908;2023-01-29T09:49:42;99301.31;;;4.26
27826;BMP280;15077;49.704;9.908;2023-01-29T09:52:20;99323.06;;;4.30
27826;BMP280;15077;49.704;9.908;2023-01-29T09:55:03;99317.22;;;4.32
27826;BMP280;15077;49.704;9.908;2023-01-29T09:57:51;99324.75;;;4.34
27826;BMP280;15077;49.704;9.908;2023-01-29T10:03:51;99339.81;;;4.37
27826;BMP280;15077;49.704;9.908;2023-01-29T10:12:52;99363.28;;;4.49
27826;BMP280;15077;49.704;9.908;2023-01-29T10:15:41;99365.81;;;4.57
27826;BMP280;15077;49.704;9.908;2023-01-29T10:18:33;99370.03;;;4.64
27826;BMP280;15077;49.704;9.908;2023-01-29T10:24:35;99352.47;;;4.71
27826;BMP280;15077;49.704;9.908;2023-01-29T10:27:10;99344.13;;;4.80
27826;BMP280;15077;49.704;9.908;2023-01-29T10:29:41;99332.38;;;4.84
27826;BMP280;15077;49.704;9.908;2023-01-29T10:32:19;99312.28;;;4.90
27826;BMP280;15077;49.704;9.908;2023-01-29T10:35:03;99309.78;;;4.93
27826;BMP280;15077;49.704;9.908;2023-01-29T10:37:40;99297.22;;;5.02
27826;BMP280;15077;49.704;9.908;2023-01-29T10:40:38;99284.66;;;5.02
27826;BMP280;15077;49.704;9.908;2023-01-29T10:43:19;99276.28;;;5.03
27826;BMP280;15077;49.704;9.908;2023-01-29T10:46:22;99275.47;;;4.98
27826;BMP280;15077;49.704;9.908;2023-01-29T10:55:26;99267.94;;;5.04
27826;BMP280;15077;49.704;9.908;2023-01-29T10:58:29;99262.91;;;5.10
27826;BMP280;15077;49.704;9.908;2023-01-29T11:00:56;99249.50;;;5.17
27826;BMP280;15077;49.704;9.908;2023-01-29T11:03:26;99243.59;;;5.24
27826;BMP280;15077;49.704;9.908;2023-01-29T11:08:53;99242.75;;;5.28
27826;BMP280;15077;49.704;9.908;2023-01-29T11:11:26;99241.91;;;5.33
27826;BMP280;15077;49.704;9.908;2023-01-29T11:13:59;99232.69;;;5.40
27826;BMP280;15077;49.704;9.908;2023-01-29T11:16:29;99228.44;;;5.46
27826;BMP280;15077;49.704;9.908;2023-01-29T11:19:00;99230.09;;;5.56
27826;BMP280;15077;49.704;9.908;2023-01-29T11:21:28;99219.19;;;5.65
27826;BMP280;15077;49.704;9.908;2023-01-29T11:24:12;99220.00;;;5.73
27826;BMP280;15077;49.704;9.908;2023-01-29T11:26:43;99222.50;;;5.81
27826;BMP280;15077;49.704;9.908;2023-01-29T11:29:40;99215.75;;;5.91
27826;BMP280;15077;49.704;9.908;2023-01-29T11:32:31;99211.50;;;5.99
27826;BMP280;15077;49.704;9.908;2023-01-29T11:35:20;99206.44;;;6.09
27826;BMP280;15077;49.704;9.908;2023-01-29T11:37:47;99198.00;;;6.18
27826;BMP280;15077;49.704;9.908;2023-01-29T11:42:46;99181.13;;;6.27
27826;BMP280;15077;49.704;9.908;2023-01-29T11:45:25;99161.84;;;6.29
27826;BMP280;15077;49.704;9.908;2023-01-29T11:47:55;99155.09;;;6.31
27826;BMP280;15077;49.704;9.908;2023-01-29T11:50:25;99149.22;;;6.35
27826;BMP280;15077;49.704;9.908;2023-01-29T11:52:52;99147.50;;;6.38
27826;BMP280;15077;49.704;9.908;2023-01-29T11:55:23;99140.72;;;6.43
27826;BMP280;15077;49.704;9.908;2023-01-29T11:58:11;99136.53;;;6.47
27826;BMP280;15077;49.704;9.908;2023-01-29T12:00:40;99144.03;;;6.53
27826;BMP280;15077;49.704;9.908;2023-01-29T12:06:29;99123.88;;;6.51
27826;BMP280;15077;49.704;9.908;2023-01-29T12:09:01;99123.06;;;6.51
27826;BMP280;15077;49.704;9.908;2023-01-29T12:11:34;99121.41;;;6.47
27826;BMP280;15077;49.704;9.908;2023-01-29T12:14:05;99116.53;;;6.29
27826;BMP280;15077;49.704;9.908;2023-01-29T12:17:00;99107.28;;;6.28
27826;BMP280;15077;49.704;9.908;2023-01-29T12:22:21;99119.88;;;6.28
27826;BMP280;15077;49.704;9.908;2023-01-29T12:25:07;99104.78;;;6.27
27826;BMP280;15077;49.704;9.908;2023-01-29T12:28:00;99105.59;;;6.27
27826;BMP280;15077;49.704;9.908;2023-01-29T12:30:47;99114.84;;;6.28
27826;BMP280;15077;49.704;9.908;2023-01-29T12:36:18;99116.47;;;6.35
27826;BMP280;15077;49.704;9.908;2023-01-29T12:38:46;99113.91;;;6.41
27826;BMP280;15077;49.704;9.908;2023-01-29T12:41:33;99115.53;;;6.48
27826;BMP280;15077;49.704;9.908;2023-01-29T12:46:45;99090.97;;;6.68
27826;BMP280;15077;49.704;9.908;2023-01-29T12:49:22;99079.13;;;6.75
27826;BMP280;15077;49.704;9.908;2023-01-29T12:51:57;99078.19;;;6.85
27826;BMP280;15077;49.704;9.908;2023-01-29T12:54:51;99076.47;;;6.92
27826;BMP280;15077;49.704;9.908;2023-01-29T13:00:25;99063.75;;;7.02
27826;BMP280;15077;49.704;9.908;2023-01-29T13:03:13;99072.88;;;7.09
27826;BMP280;15077;49.704;9.908;2023-01-29T13:08:51;99069.41;;;7.19
27826;BMP280;15077;49.704;9.908;2023-01-29T13:11:27;99048.31;;;7.27
27826;BMP280;15077;49.704;9.908;2023-01-29T13:14:13;99045.81;;;7.26
27826;BMP280;15077;49.704;9.908;2023-01-29T13:16:48;99044.97;;;7.24
27826;BMP280;15077;49.704;9.908;2023-01-29T13:19:28;99039.13;;;7.22
27826;BMP280;15077;49.704;9.908;2023-01-29T13:22:00;99033.31;;;7.17
27826;BMP280;15077;49.704;9.908;2023-01-29T13:24:39;99041.78;;;7.12
27826;BMP280;15077;49.704;9.908;2023-01-29T13:27:06;99039.28;;;7.09
27826;BMP280;15077;49.704;9.908;2023-01-29T13:29:32;99035.94;;;7.08
27826;BMP280;15077;49.704;9.908;2023-01-29T13:32:01;99035.06;;;7.09
27826;BMP280;15077;49.704;9.908;2023-01-29T13:34:44;99031.72;;;7.09
27826;BMP280;15077;49.704;9.908;2023-01-29T13:37:51;99025.03;;;7.06
27826;BMP280;15077;49.704;9.908;2023-01-29T13:40:28;99020.81;;;7.08
27826;BMP280;15077;49.704;9.908;2023-01-29T13:42:55;99019.88;;;7.14
27826;BMP280;15077;49.704;9.908;2023-01-29T13:50:39;99032.88;;;7.50
27826;BMP280;15077;49.704;9.908;2023-01-29T13:53:08;99041.09;;;7.61
27826;BMP280;15077;49.704;9.908;2023-01-29T13:55:42;99047.69;;;7.71
27826;BMP280;15077;49.704;9.908;2023-01-29T14:01:03;99037.47;;;7.79
27826;BMP280;15077;49.704;9.908;2023-01-29T14:05:58;99027.41;;;7.76
27826;BMP280;15077;49.704;9.908;2023-01-29T14:08:44;99038.41;;;7.71
27826;BMP280;15077;49.704;9.908;2023-01-29T14:13:45;99019.28;;;7.60
27826;BMP280;15077;49.704;9.908;2023-01-29T14:18:57;99009.34;;;7.49
27826;BMP280;15077;49.704;9.908;2023-01-29T14:21:34;99006.00;;;7.46
27826;BMP280;15077;49.704;9.908;2023-01-29T14:24:29;99007.75;;;7.41
27826;BMP280;15077;49.704;9.908;2023-01-29T14:26:55;99001.91;;;7.39
27826;BMP280;15077;49.704;9.908;2023-01-29T14:29:27;99000.25;;;7.36
27826;BMP280;15077;49.704;9.908;2023-01-29T14:32:13;98991.94;;;7.28
27826;BMP280;15077;49.704;9.908;2023-01-29T14:34:54;98987.81;;;7.26
27826;BMP280;15077;49.704;9.908;2023-01-29T14:37:32;98987.84;;;7.23
27826;BMP280;15077;49.704;9.908;2023-01-29T14:43:02;98994.66;;;7.15
27826;BMP280;15077;49.704;9.908;2023-01-29T14:45:32;98994.69;;;7.12
27826;BMP280;15077;49.704;9.908;2023-01-29T14:53:43;98991.69;;;6.85
27826;BMP280;15077;49.704;9.908;2023-01-29T14:56:32;98982.47;;;6.82
27826;BMP280;15077;49.704;9.908;2023-01-29T14:59:15;98980.00;;;6.79
27826;BMP280;15077;49.704;9.908;2023-01-29T15:01:58;98969.94;;;6.76
27826;BMP280;15077;49.704;9.908;2023-01-29T15:04:43;98973.31;;;6.75
27826;BMP280;15077;49.704;9.908;2023-01-29T15:09:48;98974.97;;;6.79
27826;BMP280;15077;49.704;9.908;2023-01-29T15:12:44;98975.00;;;6.76
27826;BMP280;15077;49.704;9.908;2023-01-29T15:18:07;98980.03;;;6.76
27826;BMP280;15077;49.704;9.908;2023-01-29T15:20:41;98974.22;;;6.73
27826;BMP280;15077;49.704;9.908;2023-01-29T15:23:31;98970.88;;;6.68
27826;BMP280;15077;49.704;9.908;2023-01-29T15:26:05;98965.88;;;6.67
27826;BMP280;15077;49.704;9.908;2023-01-29T15:28:34;98960.84;;;6.65
27826;BMP280;15077;49.704;9.908;2023-01-29T15:31:10;98966.75;;;6.64
27826;BMP280;15077;49.704;9.908;2023-01-29T15:33:42;98970.13;;;6.62
27826;BMP280;15077;49.704;9.908;2023-01-29T15:36:23;98966.84;;;6.55
27826;BMP280;15077;49.704;9.908;2023-01-29T15:41:37;98959.38;;;6.45
27826;BMP280;15077;49.704;9.908;2023-01-29T15:44:11;98954.38;;;6.42
27826;BMP280;15077;49.704;9.908;2023-01-29T15:46:41;98953.66;;;6.34
27826;BMP280;15077;49.704;9.908;2023-01-29T15:49:16;98949.47;;;6.31
27826;BMP280;15077;49.704;9.908;2023-01-29T15:51:46;98954.53;;;6.28
27826;BMP280;15077;49.704;9.908;2023-01-29T15:54:15;98953.75;;;6.25
27826;BMP280;15077;49.704;9.908;2023-01-29T15:56:51;98950.44;;;6.22
27826;BMP280;15077;49.704;9.908;2023-01-29T15:59:24;98953.00;;;6.17
27826;BMP280;15077;49.704;9.908;2023-01-29T16:01:51;98954.72;;;6.12
27826;BMP280;15077;49.704;9.908;2023-01-29T16:04:26;98952.22;;;6.09
27826;BMP280;15077;49.704;9.908;2023-01-29T16:06:54;98953.13;;;6.04
27826;BMP280;15077;49.704;9.908;2023-01-29T16:09:26;98959.00;;;6.01
27826;BMP280;15077;49.704;9.908;2023-01-29T16:11:56;98954.00;;;5.98
27826;BMP280;15077;49.704;9.908;2023-01-29T16:14:24;98946.50;;;5.94
27826;BMP280;15077;49.704;9.908;2023-01-29T16:16:52;98948.19;;;5.90
27826;BMP280;15077;49.704;9.908;2023-01-29T16:19:27;98949.09;;;5.86
27826;BMP280;15077;49.704;9.908;2023-01-29T16:22:02;98948.25;;;5.83
27826;BMP280;15077;49.704;9.908;2023-01-29T16:24:33;98947.47;;;5.79
27826;BMP280;15077;49.704;9.908;2023-01-29T16:27:11;98951.69;;;5.73
27826;BMP280;15077;49.704;9.908;2023-01-29T16:29:38;98945.00;;;5.71
27826;BMP280;15077;49.704;9.908;2023-01-29T16:32:04;98950.06;;;5.68
27826;BMP280;15077;49.704;9.908;2023-01-29T16:34:38;98947.56;;;5.65
27826;BMP280;15077;49.704;9.908;2023-01-29T16:39:46;98948.44;;;5.58
27826;BMP280;15077;49.704;9.908;2023-01-29T16:45:07;98937.63;;;5.50
27826;BMP280;15077;49.704;9.908;2023-01-29T16:48:29;98939.31;;;5.45
27826;BMP280;15077;49.704;9.908;2023-01-29T16:51:57;98935.16;;;5.44
27826;BMP280;15077;49.704;9.908;2023-01-29T16:54:06;98931.81;;;5.39
27826;BMP280;15077;49.704;9.908;2023-01-29T16:56:33;98932.72;;;5.35
27826;BMP280;15077;49.704;9.908;2023-01-29T16:59:03;98924.31;;;5.33
27826;BMP280;15077;49.704;9.908;2023-01-29T17:01:32;98918.50;;;5.28
27826;BMP280;15077;49.704;9.908;2023-01-29T17:04:05;98912.69;;;5.23